createdAt,value
2022-08-23T00:00:16.955Z,18.72
2022-08-23T00:01:21.268Z,18.73
2022-08-23T00:02:23.894Z,18.72
2022-08-23T00:03:16.768Z,18.75
2022-08-23T00:04:22.267Z,18.75
2022-08-23T00:05:18.591Z,18.75
2022-08-23T00:06:19.103Z,18.78
2022-08-23T00:07:19.023Z,18.79
2022-08-23T00:08:19.224Z,18.78
2022-08-23T00:09:22.001Z,18.74
2022-08-23T00:10:20.464Z,18.73
2022-08-23T00:12:25.081Z,18.72
2022-08-23T00:13:25.392Z,18.71
2022-08-23T00:14:31.054Z,18.7
2022-08-23T00:15:29.498Z,18.71
2022-08-23T00:16:30.029Z,18.7
2022-08-23T00:17:33.344Z,18.69
2022-08-23T00:18:32.382Z,18.69
2022-08-23T00:19:32.696Z,18.72
2022-08-23T00:20:32.942Z,18.68
2022-08-23T00:21:33.636Z,18.64
2022-08-23T00:22:33.957Z,18.65
2022-08-23T00:23:34.360Z,18.65
2022-08-23T00:24:37.990Z,18.64
2022-08-23T00:25:38.289Z,18.64
2022-08-23T00:27:40.150Z,18.62
2022-08-23T00:28:40.762Z,18.6
2022-08-23T00:30:43.535Z,18.59
2022-08-23T00:31:43.752Z,18.57
2022-08-23T00:32:44.461Z,18.55
2022-08-23T00:33:44.575Z,18.55
2022-08-23T00:34:44.673Z,18.55
2022-08-23T00:35:45.394Z,18.55
2022-08-23T00:36:45.614Z,18.54
2022-08-23T00:37:46.486Z,18.51
2022-08-23T00:38:49.012Z,18.5
2022-08-23T00:39:49.733Z,18.46
2022-08-23T00:40:52.709Z,18.44
2022-08-23T00:41:51.077Z,18.42
2022-08-23T00:43:56.214Z,18.4
2022-08-23T00:44:56.727Z,18.4
2022-08-23T00:46:57.764Z,18.32
2022-08-23T00:47:56.156Z,18.34
2022-08-23T00:48:57.072Z,18.37
2022-08-23T00:54:10.106Z,18.33
2022-08-23T00:55:08.881Z,18.33
2022-08-23T00:56:12.170Z,18.34
2022-08-23T00:57:13.612Z,18.32
2022-08-23T00:58:13.625Z,18.32
2022-08-23T00:59:12.282Z,18.27
2022-08-23T01:00:13.718Z,18.28
2022-08-23T01:01:13.623Z,18.25
2022-08-23T01:02:14.014Z,18.23
2022-08-23T01:03:14.566Z,18.21
2022-08-23T01:04:14.162Z,18.22
2022-08-23T01:05:14.996Z,18.19
2022-08-23T01:08:25.862Z,18.05
2022-08-23T01:09:23.505Z,18
2022-08-23T01:12:36.944Z,17.87
2022-08-23T01:13:45.449Z,17.79
2022-08-23T01:18:01.024Z,17.68
2022-08-23T01:18:56.029Z,17.67
2022-08-23T01:20:01.667Z,17.63
2022-08-23T01:24:27.527Z,17.56
2022-08-23T01:26:21.935Z,17.52
2022-08-23T01:27:19.731Z,17.52
2022-08-23T01:28:20.357Z,17.52
2022-08-23T01:29:20.364Z,17.52
2022-08-23T01:30:24.463Z,17.52
2022-08-23T01:31:23.659Z,17.51
2022-08-23T01:32:22.532Z,17.5
2022-08-23T01:33:23.230Z,17.48
2022-08-23T01:36:27.692Z,17.45
2022-08-23T01:37:27.576Z,17.41
2022-08-23T01:38:28.203Z,17.39
2022-08-23T01:39:30.357Z,17.37
2022-08-23T01:40:31.810Z,17.36
2022-08-23T01:41:31.195Z,17.34
2022-08-23T01:42:31.411Z,17.34
2022-08-23T01:43:31.715Z,17.32
2022-08-23T01:44:35.409Z,17.29
2022-08-23T01:45:33.888Z,17.28
2022-08-23T01:46:33.485Z,17.28
2022-08-23T01:47:33.635Z,17.26
2022-08-23T01:48:34.005Z,17.2
2022-08-23T01:49:35.031Z,17.18
2022-08-23T01:51:35.355Z,17.14
2022-08-23T01:52:36.692Z,17.13
2022-08-23T01:53:35.981Z,17.14
2022-08-23T01:54:36.503Z,17.15
2022-08-23T01:55:37.229Z,17.1
2022-08-23T01:56:39.475Z,17.09
2022-08-23T01:57:40.615Z,17.09
2022-08-23T01:58:38.371Z,17.11
2022-08-23T01:59:38.998Z,17.11
2022-08-23T02:00:42.172Z,17.12
2022-08-23T02:01:40.204Z,17.12
2022-08-23T02:02:40.851Z,17.11
2022-08-23T02:03:40.766Z,17.06
2022-08-23T02:04:40.570Z,17.03
2022-08-23T02:05:42.030Z,16.99
2022-08-23T02:06:41.505Z,16.96
2022-08-23T02:07:41.809Z,16.94
2022-08-23T02:08:42.643Z,16.94
2022-08-23T02:09:42.943Z,16.94
2022-08-23T02:10:43.063Z,16.92
2022-08-23T02:11:43.577Z,16.91
2022-08-23T02:12:44.304Z,16.88
2022-08-23T02:13:45.435Z,16.85
2022-08-23T02:14:44.616Z,16.82
2022-08-23T02:15:45.554Z,16.83
2022-08-23T02:16:58.142Z,16.85
2022-08-23T02:17:46.791Z,16.85
2022-08-23T02:18:47.098Z,16.83
2022-08-23T02:19:47.315Z,16.82
2022-08-23T02:20:50.291Z,16.82
2022-08-23T02:21:48.652Z,16.83
2022-08-23T02:22:48.876Z,16.86
2022-08-23T02:23:49.696Z,16.88
2022-08-23T02:24:49.296Z,16.88
2022-08-23T02:25:51.145Z,16.83
2022-08-23T02:27:52.897Z,16.78
2022-08-23T02:28:54.237Z,16.75
2022-08-23T02:29:54.142Z,16.68
2022-08-23T02:30:54.559Z,16.63
2022-08-23T02:31:55.698Z,16.62
2022-08-23T02:32:55.601Z,16.62
2022-08-23T02:33:56.021Z,16.67
2022-08-23T02:35:05.186Z,16.68
2022-08-23T02:35:58.377Z,16.67
2022-08-23T02:36:59.105Z,16.67
2022-08-23T02:39:00.247Z,16.65
2022-08-23T02:40:00.427Z,16.63
2022-08-23T02:41:01.204Z,16.6
2022-08-23T02:42:01.487Z,16.57
2022-08-23T02:43:01.605Z,16.55
2022-08-23T02:44:02.224Z,16.53
2022-08-23T02:45:02.224Z,16.52
2022-08-23T02:46:02.646Z,16.49
2022-08-23T02:47:03.580Z,16.48
2022-08-23T02:48:03.988Z,16.49
2022-08-23T02:49:05.332Z,16.47
2022-08-23T02:50:09.135Z,16.45
2022-08-23T02:51:08.419Z,16.39
2022-08-23T02:52:08.524Z,16.38
2022-08-23T02:53:07.933Z,16.43
2022-08-23T02:54:08.421Z,16.45
2022-08-23T02:55:09.257Z,16.42
2022-08-23T02:56:21.623Z,16.39
2022-08-23T02:57:09.780Z,16.33
2022-08-23T02:58:13.062Z,16.33
2022-08-23T02:59:10.616Z,16.33
2022-08-23T03:00:12.770Z,16.34
2022-08-23T03:01:19.545Z,16.33
2022-08-23T03:02:12.562Z,16.3
2022-08-23T03:03:13.095Z,16.26
2022-08-23T03:04:13.206Z,16.22
2022-08-23T03:05:14.951Z,16.24
2022-08-23T03:06:24.901Z,16.24
2022-08-23T03:07:19.084Z,16.26
2022-08-23T03:08:20.095Z,16.25
2022-08-23T03:09:20.002Z,16.2
2022-08-23T03:10:20.655Z,16.19
2022-08-23T03:11:22.371Z,16.19
2022-08-23T03:12:21.250Z,16.17
2022-08-23T03:13:21.975Z,16.13
2022-08-23T03:14:23.044Z,16.15
2022-08-23T03:15:23.564Z,16.13
2022-08-23T03:16:24.154Z,16.13
2022-08-23T03:17:23.985Z,16.11
2022-08-23T03:18:24.692Z,16.12
2022-08-23T03:19:27.638Z,16.14
2022-08-23T03:20:26.253Z,16.14
2022-08-23T03:21:26.954Z,16.15
2022-08-23T03:22:29.733Z,16.15
2022-08-23T03:23:27.981Z,16.17
2022-08-23T03:24:28.719Z,16.2
2022-08-23T03:25:28.955Z,16.22
2022-08-23T03:26:32.442Z,16.24
2022-08-23T03:27:30.733Z,16.25
2022-08-23T03:28:30.992Z,16.28
2022-08-23T03:29:31.933Z,16.3
2022-08-23T03:30:32.927Z,16.29
2022-08-23T03:31:33.640Z,16.3
2022-08-23T03:32:33.075Z,16.33
2022-08-23T03:33:33.874Z,16.33
2022-08-23T03:34:34.431Z,16.33
2022-08-23T03:35:34.113Z,16.31
2022-08-23T03:36:35.483Z,16.3
2022-08-23T03:37:35.562Z,16.31
2022-08-23T03:38:41.144Z,16.31
2022-08-23T03:39:40.461Z,16.33
2022-08-23T03:40:41.405Z,16.37
2022-08-23T03:41:41.385Z,16.43
2022-08-23T03:42:41.245Z,16.46
2022-08-23T03:43:41.524Z,16.43
2022-08-23T03:44:42.083Z,16.47
2022-08-23T03:45:42.750Z,16.54
2022-08-23T03:46:43.376Z,16.51
2022-08-23T03:47:43.301Z,16.54
2022-08-23T03:48:44.548Z,16.53
2022-08-23T03:49:44.613Z,16.53
2022-08-23T03:50:45.174Z,16.53
2022-08-23T03:51:45.265Z,16.55
2022-08-23T03:52:45.915Z,16.54
2022-08-23T03:53:47.139Z,16.57
2022-08-23T03:54:46.629Z,16.63
2022-08-23T03:55:47.153Z,16.69
2022-08-23T03:57:50.623Z,16.73
2022-08-23T03:58:51.895Z,16.79
2022-08-23T03:59:51.585Z,16.79
2022-08-23T04:00:52.234Z,16.75
2022-08-23T04:01:52.271Z,16.73
2022-08-23T04:02:52.913Z,16.8
2022-08-23T04:03:53.662Z,16.8
2022-08-23T04:04:53.855Z,16.79
2022-08-23T04:05:54.074Z,16.78
2022-08-23T04:06:54.744Z,16.79
2022-08-23T04:07:54.959Z,16.77
2022-08-23T04:08:55.721Z,16.79
2022-08-23T04:09:55.559Z,16.83
2022-08-23T04:10:55.857Z,16.86
2022-08-23T04:11:56.096Z,16.83
2022-08-23T04:12:56.665Z,16.83
2022-08-23T04:13:57.365Z,16.83
2022-08-23T04:14:58.271Z,16.81
2022-08-23T04:15:58.566Z,16.82
2022-08-23T04:16:58.846Z,16.84
2022-08-23T04:18:00.218Z,16.85
2022-08-23T04:18:59.820Z,16.88
2022-08-23T04:20:02.881Z,16.89
2022-08-23T04:21:05.013Z,16.89
2022-08-23T04:22:03.076Z,16.92
2022-08-23T04:23:03.505Z,16.94
2022-08-23T04:24:04.415Z,16.94
2022-08-23T04:25:05.259Z,16.96
2022-08-23T04:26:06.810Z,16.95
2022-08-23T04:27:08.095Z,16.96
2022-08-23T04:28:08.154Z,16.97
2022-08-23T04:29:08.757Z,16.96
2022-08-23T04:30:09.272Z,16.99
2022-08-23T04:31:11.444Z,16.97
2022-08-23T04:32:12.573Z,16.95
2022-08-23T04:33:16.217Z,16.98
2022-08-23T04:34:15.864Z,17.01
2022-08-23T04:35:18.252Z,17.01
2022-08-23T04:36:18.433Z,17
2022-08-23T04:37:18.984Z,17.01
2022-08-23T04:38:24.889Z,17.04
2022-08-23T04:39:23.376Z,17.07
2022-08-23T04:40:24.062Z,17.12
2022-08-23T04:41:23.892Z,17.15
2022-08-23T04:42:25.193Z,17.17
2022-08-23T04:43:24.633Z,17.21
2022-08-23T04:44:24.924Z,17.23
2022-08-23T04:45:25.804Z,17.28
2022-08-23T04:46:26.414Z,17.27
2022-08-23T04:47:26.312Z,17.3
2022-08-23T04:48:27.123Z,17.31
2022-08-23T04:49:27.027Z,17.38
2022-08-23T04:50:27.555Z,17.41
2022-08-23T04:51:27.870Z,17.45
2022-08-23T04:52:28.276Z,17.46
2022-08-23T04:53:28.484Z,17.52
2022-08-23T04:54:28.896Z,17.53
2022-08-23T04:55:29.853Z,17.51
2022-08-23T04:56:29.824Z,17.52
2022-08-23T04:57:30.144Z,17.56
2022-08-23T04:58:31.798Z,17.57
2022-08-23T04:59:30.785Z,17.63
2022-08-23T05:00:31.236Z,17.61
2022-08-23T05:01:31.488Z,17.63
2022-08-23T05:02:32.005Z,17.67
2022-08-23T05:03:31.943Z,17.75
2022-08-23T05:04:32.765Z,17.73
2022-08-23T05:05:32.952Z,17.75
2022-08-23T05:06:33.369Z,17.77
2022-08-23T05:07:42.339Z,17.82
2022-08-23T05:08:35.945Z,17.85
2022-08-23T05:09:36.492Z,17.87
2022-08-23T05:10:36.574Z,17.83
2022-08-23T05:11:37.393Z,17.86
2022-08-23T05:12:37.664Z,17.9
2022-08-23T05:13:38.382Z,17.94
2022-08-23T05:14:38.017Z,17.99
2022-08-23T05:15:38.565Z,18.02
2022-08-23T05:16:39.222Z,18.13
2022-08-23T05:17:39.801Z,18.21
2022-08-23T05:18:40.234Z,18.21
2022-08-23T05:19:40.291Z,18.18
2022-08-23T05:20:45.493Z,18.23
2022-08-23T05:21:45.258Z,18.33
2022-08-23T05:22:48.644Z,18.33
2022-08-23T05:23:51.037Z,18.36
2022-08-23T05:24:47.532Z,18.48
2022-08-23T05:25:47.839Z,18.5
2022-08-23T05:26:48.352Z,18.54
2022-08-23T05:27:48.905Z,18.63
2022-08-23T05:28:51.027Z,18.69
2022-08-23T05:29:49.543Z,18.7
2022-08-23T05:31:53.904Z,18.87
2022-08-23T05:32:54.350Z,18.94
2022-08-23T05:33:54.840Z,19.01
2022-08-23T05:34:55.462Z,19.01
2022-08-23T05:35:55.183Z,19.06
2022-08-23T05:36:56.579Z,19.14
2022-08-23T05:37:56.540Z,19.16
2022-08-23T05:38:56.624Z,19.12
2022-08-23T05:39:56.900Z,19.15
2022-08-23T05:40:59.907Z,19.14
2022-08-23T05:41:57.874Z,19.13
2022-08-23T05:42:58.293Z,19.14
2022-08-23T05:43:58.910Z,19.2
2022-08-23T05:44:59.543Z,19.29
2022-08-23T05:47:02.408Z,19.42
2022-08-23T05:48:02.055Z,19.41
2022-08-23T05:49:02.805Z,19.49
2022-08-23T05:50:02.792Z,19.48
2022-08-23T05:52:12.398Z,19.48
2022-08-23T05:53:10.130Z,19.5
2022-08-23T05:54:11.085Z,19.62
2022-08-23T05:55:11.265Z,19.53
2022-08-23T05:56:25.204Z,19.46
2022-08-23T05:57:13.556Z,19.52
2022-08-23T05:58:13.644Z,19.58
2022-08-23T05:59:15.998Z,19.66
2022-08-23T06:00:14.576Z,19.82
2022-08-23T06:01:16.063Z,19.9
2022-08-23T06:02:15.668Z,19.97
2022-08-23T06:03:15.623Z,19.99
2022-08-23T06:04:16.255Z,20.05
2022-08-23T06:05:17.416Z,20.08
2022-08-23T06:06:18.086Z,20.14
2022-08-23T06:07:17.593Z,20.17
2022-08-23T06:08:17.395Z,20.18
2022-08-23T06:09:18.523Z,20.04
2022-08-23T06:10:18.634Z,20.03
2022-08-23T06:11:23.549Z,20.15
2022-08-23T06:12:22.637Z,20.24
2022-08-23T06:13:22.541Z,20.27
2022-08-23T06:14:23.127Z,20.22
2022-08-23T06:15:23.399Z,20.23
2022-08-23T06:16:33.419Z,20.3
2022-08-23T06:17:26.670Z,20.44
2022-08-23T06:18:27.085Z,20.51
2022-08-23T06:19:27.202Z,20.44
2022-08-23T06:20:27.553Z,20.39
2022-08-23T06:21:28.433Z,20.34
2022-08-23T06:22:30.491Z,20.19
2022-08-23T06:23:29.277Z,20.1
2022-08-23T06:24:29.071Z,20.08
2022-08-23T06:25:30.316Z,20.11
2022-08-23T06:26:35.734Z,20.21
2022-08-23T06:27:33.601Z,20.35
2022-08-23T06:28:33.988Z,20.43
2022-08-23T06:29:38.614Z,20.34
2022-08-23T06:30:39.790Z,20.37
2022-08-23T06:31:43.348Z,20.35
2022-08-23T06:32:41.356Z,20.58
2022-08-23T06:33:43.170Z,20.8
2022-08-23T06:34:42.131Z,20.83
2022-08-23T06:35:42.565Z,20.92
2022-08-23T06:36:42.794Z,20.94
2022-08-23T06:37:43.380Z,20.92
2022-08-23T06:38:43.499Z,20.87
2022-08-23T06:39:43.986Z,20.82
2022-08-23T06:40:44.427Z,20.91
2022-08-23T06:41:45.863Z,20.84
2022-08-23T06:42:45.260Z,20.99
2022-08-23T06:43:48.850Z,21.06
2022-08-23T06:44:46.708Z,21.06
2022-08-23T06:45:53.778Z,21.04
2022-08-23T06:46:51.110Z,21.22
2022-08-23T06:47:52.084Z,21.37
2022-08-23T06:48:52.677Z,21.42
2022-08-23T06:49:57.818Z,21.46
2022-08-23T06:50:56.270Z,21.53
2022-08-23T06:51:58.530Z,21.6
2022-08-23T06:52:57.404Z,21.72
2022-08-23T06:54:03.090Z,21.77
2022-08-23T06:55:01.210Z,21.6
2022-08-23T06:56:01.614Z,21.67
2022-08-23T06:57:02.762Z,21.75
2022-08-23T06:58:02.490Z,21.78
2022-08-23T06:59:03.794Z,21.73
2022-08-23T07:00:04.407Z,21.6
2022-08-23T07:02:09.081Z,21.72
2022-08-23T07:03:08.191Z,21.72
2022-08-23T07:04:09.973Z,21.73
2022-08-23T07:05:08.034Z,21.8
2022-08-23T07:06:08.243Z,21.89
2022-08-23T07:07:11.538Z,21.79
2022-08-23T07:08:09.905Z,21.71
2022-08-23T07:09:10.179Z,21.81
2022-08-23T07:10:10.732Z,21.98
2022-08-23T07:11:10.740Z,22.04
2022-08-23T07:12:10.944Z,22.16
2022-08-23T07:13:11.474Z,22.26
2022-08-23T07:14:14.440Z,22.28
2022-08-23T07:15:12.714Z,22.35
2022-08-23T07:16:12.656Z,22.44
2022-08-23T07:17:13.233Z,22.59
2022-08-23T07:18:13.502Z,22.51
2022-08-23T07:19:13.569Z,22.61
2022-08-23T07:20:13.559Z,22.67
2022-08-23T07:21:14.075Z,22.73
2022-08-23T07:22:15.613Z,22.71
2022-08-23T07:23:14.617Z,22.59
2022-08-23T07:24:15.536Z,22.54
2022-08-23T07:25:15.536Z,22.63
2022-08-23T07:26:17.089Z,22.75
2022-08-23T07:27:15.858Z,22.81
2022-08-23T07:28:16.370Z,22.82
2022-08-23T07:29:17.617Z,22.83
2022-08-23T07:30:17.016Z,22.94
2022-08-23T07:32:21.522Z,23.04
2022-08-23T07:33:23.103Z,23.04
2022-08-23T07:34:23.580Z,22.99
2022-08-23T07:35:22.458Z,23.11
2022-08-23T07:36:23.904Z,23.16
2022-08-23T07:37:22.978Z,23.16
2022-08-23T07:38:23.402Z,23.21
2022-08-23T07:39:28.131Z,23.29
2022-08-23T07:40:28.636Z,23.39
2022-08-23T07:41:32.856Z,23.51
2022-08-23T07:42:30.602Z,23.63
2022-08-23T07:43:34.230Z,23.66
2022-08-23T07:44:32.245Z,23.68
2022-08-23T07:45:32.147Z,23.45
2022-08-23T07:46:33.342Z,23.49
2022-08-23T07:47:33.708Z,23.6
2022-08-23T07:48:52.885Z,23.68
2022-08-23T07:49:36.276Z,23.73
2022-08-23T07:50:36.286Z,23.74
2022-08-23T07:51:38.545Z,23.76
2022-08-23T07:52:37.110Z,23.88
2022-08-23T07:53:39.768Z,23.97
2022-08-23T07:54:38.985Z,23.87
2022-08-23T07:55:39.698Z,23.93
2022-08-23T07:56:39.815Z,24.02
2022-08-23T07:57:39.710Z,24.05
2022-08-23T07:58:41.146Z,24.05
2022-08-23T07:59:40.537Z,24.06
2022-08-23T08:00:40.964Z,24.16
2022-08-23T08:01:43.939Z,24.23
2022-08-23T08:02:42.162Z,24.1
2022-08-23T08:04:45.588Z,24.04
2022-08-23T08:05:46.220Z,24.15
2022-08-23T08:07:00.192Z,24.15
2022-08-23T08:07:47.572Z,24.17
2022-08-23T08:08:48.698Z,24.12
2022-08-23T08:09:48.392Z,24.16
2022-08-23T08:11:51.707Z,24.17
2022-08-23T08:12:51.892Z,24.11
2022-08-23T08:13:52.616Z,24.12
2022-08-23T08:14:52.830Z,24.23
2022-08-23T08:15:52.776Z,24.29
2022-08-23T08:16:53.249Z,24.33
2022-08-23T08:17:53.668Z,24.49
2022-08-23T08:18:55.624Z,24.53
2022-08-23T08:19:54.295Z,24.6
2022-08-23T08:20:54.290Z,24.6
2022-08-23T08:21:54.949Z,24.63
2022-08-23T08:22:58.706Z,24.65
2022-08-23T08:23:58.736Z,24.7
2022-08-23T08:24:58.217Z,24.75
2022-08-23T08:27:03.050Z,24.75
2022-08-23T08:28:03.702Z,24.73
2022-08-23T08:29:04.806Z,24.79
2022-08-23T08:31:07.168Z,24.83
2022-08-23T08:32:07.272Z,24.76
2022-08-23T08:33:09.960Z,24.67
2022-08-23T08:34:10.154Z,24.76
2022-08-23T08:35:10.679Z,24.8
2022-08-23T08:37:14.785Z,24.78
2022-08-23T08:38:15.097Z,24.87
2022-08-23T08:39:26.829Z,24.86
2022-08-23T08:40:31.398Z,24.94
2022-08-23T08:48:44.869Z,24.99
2022-08-23T08:49:53.980Z,25.03
2022-08-23T08:50:57.971Z,25.12
2022-08-23T08:53:02.213Z,25.35
2022-08-23T08:54:03.834Z,25.17
2022-08-23T08:55:11.006Z,25.19
2022-08-23T08:56:16.474Z,25.21
2022-08-23T08:57:08.778Z,25.21
2022-08-23T08:58:13.188Z,25.28
2022-08-23T08:59:20.358Z,25.33
2022-08-23T09:00:18.812Z,25.34
2022-08-23T09:01:22.587Z,25.41
2022-08-23T09:02:31.871Z,25.22
2022-08-23T09:03:21.644Z,25.27
2022-08-23T09:04:21.106Z,25.34
2022-08-23T09:17:56.568Z,25.65
2022-08-23T09:18:54.574Z,25.54
2022-08-23T09:19:58.791Z,25.48
2022-08-23T09:20:57.454Z,25.57
2022-08-23T09:22:05.554Z,25.54
2022-08-23T09:24:01.488Z,25.64
2022-08-23T09:25:01.680Z,25.66
2022-08-23T09:27:04.460Z,25.64
2022-08-23T09:28:04.362Z,25.76
2022-08-23T09:29:17.105Z,25.75
2022-08-23T09:30:06.117Z,25.68
2022-08-23T09:31:08.273Z,25.76
2022-08-23T09:37:24.396Z,25.5
2022-08-23T09:38:21.739Z,25.47
2022-08-23T09:42:37.227Z,25.65
2022-08-23T09:44:44.411Z,25.66
2022-08-23T09:45:35.927Z,25.72
2022-08-23T09:46:37.169Z,25.83
2022-08-23T09:47:44.142Z,25.94
2022-08-23T09:48:45.459Z,25.97
2022-08-23T09:49:39.217Z,25.79
2022-08-23T09:50:43.314Z,25.76
2022-08-23T09:51:50.282Z,25.94
2022-08-23T09:52:48.146Z,25.65
2022-08-23T09:55:55.138Z,25.9
2022-08-23T09:56:56.469Z,25.82
2022-08-23T09:57:54.121Z,25.55
2022-08-23T09:58:54.742Z,25.47
2022-08-23T09:59:55.662Z,25.67
2022-08-23T10:01:58.994Z,26.17
2022-08-23T10:06:04.617Z,26.39
2022-08-23T10:08:08.826Z,26.18
2022-08-23T10:09:09.341Z,26.27
2022-08-23T10:12:14.985Z,26.01
2022-08-23T10:13:15.717Z,26.24
2022-08-23T10:14:18.895Z,26.31
2022-08-23T10:15:16.444Z,26.25
2022-08-23T10:29:56.989Z,26.37
2022-08-23T10:45:40.004Z,26.49
2022-08-23T10:46:40.060Z,26.73
2022-08-23T10:47:45.940Z,26.98
2022-08-23T10:48:52.317Z,27.13
2022-08-23T10:49:42.331Z,26.64
2022-08-23T10:51:45.258Z,26.78
2022-08-23T10:54:55.411Z,26.86
2022-08-23T10:55:54.906Z,26.81
2022-08-23T10:56:52.451Z,26.81
2022-08-23T10:57:53.386Z,26.82
2022-08-23T10:59:57.046Z,26.77
2022-08-23T11:00:58.834Z,26.92
2022-08-23T11:04:08.887Z,26.98
2022-08-23T11:07:19.565Z,27.54
2022-08-23T11:12:34.840Z,27.47
2022-08-23T11:13:32.608Z,27.29
2022-08-23T11:15:45.326Z,27.23
2022-08-23T11:16:39.277Z,27.35
2022-08-23T11:18:50.550Z,27.47
2022-08-23T11:21:47.909Z,27.69
2022-08-23T11:24:59.508Z,27.43
2022-08-23T11:25:57.016Z,27.25
2022-08-23T11:36:28.346Z,27.55
2022-08-23T11:37:30.616Z,27.33
2022-08-23T11:43:47.128Z,27.41
2022-08-23T11:44:49.087Z,27.41
2022-08-23T11:45:48.298Z,27.54
2022-08-23T12:09:53.046Z,28.29
2022-08-23T12:18:17.393Z,28.25
2022-08-23T12:23:28.859Z,28.15
2022-08-23T12:25:33.706Z,28.14
2022-08-23T12:28:46.093Z,28.34
2022-08-23T12:47:24.009Z,28.31
2022-08-23T12:48:27.690Z,28.45
2022-08-23T12:49:32.202Z,28.52
2022-08-23T12:50:38.868Z,28.52
2022-08-23T12:51:31.817Z,28.52
2022-08-23T12:52:34.576Z,28.51
2022-08-23T12:53:44.031Z,28.44
2022-08-23T12:54:39.209Z,28.53
2022-08-23T12:55:49.772Z,28.54
2022-08-23T12:56:37.992Z,28.63
2022-08-23T12:57:42.099Z,28.61
2022-08-23T12:58:44.854Z,28.83
2022-08-23T12:59:49.582Z,28.7
2022-08-23T13:00:57.160Z,28.63
2022-08-23T13:01:49.721Z,28.54
2022-08-23T13:02:57.746Z,28.46
2022-08-23T13:03:59.645Z,28.5
2022-08-23T13:04:55.978Z,28.46
2022-08-23T13:06:02.725Z,28.41
2022-08-23T13:07:05.965Z,28.36
2022-08-23T13:08:02.538Z,28.53
2022-08-23T13:10:04.762Z,28.54
2022-08-23T13:11:08.475Z,28.44
2022-08-23T13:12:08.290Z,28.44
2022-08-23T13:13:11.713Z,28.54
2022-08-23T13:19:27.795Z,28.52
2022-08-23T13:20:25.457Z,28.68
2022-08-23T13:22:31.191Z,28.59
2022-08-23T13:23:28.741Z,28.64
2022-08-23T13:28:37.686Z,28.68
2022-08-23T13:30:38.911Z,28.6
2022-08-23T13:32:43.748Z,28.42
2022-08-23T13:33:41.316Z,28.4
2022-08-23T13:34:48.850Z,28.49
2022-08-23T13:35:46.936Z,28.48
2022-08-23T13:36:46.352Z,28.66
2022-08-23T13:37:47.038Z,28.73
2022-08-23T13:38:47.373Z,28.48
2022-08-23T13:39:53.563Z,28.54
2022-08-23T13:41:01.004Z,28.59
2022-08-23T13:41:53.635Z,28.65
2022-08-23T13:43:01.030Z,28.66
2022-08-23T13:43:58.575Z,28.63
2022-08-23T13:45:06.261Z,28.66
2022-08-23T13:47:06.786Z,28.64
2022-08-23T13:48:14.379Z,28.55
2022-08-23T13:49:14.883Z,28.56
2022-08-23T13:52:45.880Z,28.54
2022-08-23T13:53:16.030Z,28.52
2022-08-23T13:54:16.145Z,28.59
2022-08-23T13:55:16.469Z,28.6
2022-08-23T13:56:16.686Z,28.59
2022-08-23T13:57:17.706Z,28.55
2022-08-23T14:00:22.664Z,28.51
2022-08-23T14:01:22.570Z,28.53
2022-08-23T14:02:23.985Z,28.51
2022-08-23T14:03:23.377Z,28.33
2022-08-23T14:04:23.032Z,28.28
2022-08-23T14:05:23.525Z,28.42
2022-08-23T14:06:23.909Z,28.38
2022-08-23T14:07:24.116Z,28.43
2022-08-23T14:08:24.537Z,28.5
2022-08-23T14:09:24.843Z,28.57
2022-08-23T14:10:25.461Z,28.6
2022-08-23T14:11:25.588Z,28.62
2022-08-23T14:14:31.949Z,28.55
2022-08-23T14:16:39.846Z,28.44
2022-08-23T14:17:41.456Z,28.4
2022-08-23T14:18:34.938Z,28.36
2022-08-23T14:20:46.234Z,28.43
2022-08-23T14:21:38.952Z,28.42
2022-08-23T14:22:40.399Z,28.36
2022-08-23T14:23:39.898Z,28.38
2022-08-23T14:24:40.816Z,28.33
2022-08-23T14:25:40.412Z,28.23
2022-08-23T14:26:50.175Z,28.22
2022-08-23T14:27:47.496Z,28.22
2022-08-23T14:28:45.978Z,28.23
2022-08-23T14:29:45.252Z,28.22
2022-08-23T14:30:45.625Z,28.31
2022-08-23T14:31:45.987Z,28.26
2022-08-23T14:32:46.195Z,28.26
2022-08-23T14:33:48.158Z,28.28
2022-08-23T14:34:47.024Z,28.28
2022-08-23T14:35:48.166Z,28.22
2022-08-23T14:38:06.349Z,28.24
2022-08-23T14:38:53.925Z,28.23
2022-08-23T14:39:54.394Z,28.29
2022-08-23T14:40:57.921Z,28.22
2022-08-23T14:41:55.689Z,28.28
2022-08-23T14:42:55.778Z,28.25
2022-08-23T14:43:56.406Z,28.1
2022-08-23T14:44:56.415Z,28.07
2022-08-23T14:45:57.765Z,28.1
2022-08-23T14:46:57.244Z,28.07
2022-08-23T14:47:57.714Z,28.1
2022-08-23T14:48:58.281Z,28.12
2022-08-23T14:49:58.584Z,28.07
2022-08-23T14:50:59.007Z,28.09
2022-08-23T14:52:00.654Z,28.12
2022-08-23T14:53:04.446Z,27.96
2022-08-23T14:54:04.352Z,27.95
2022-08-23T14:55:02.720Z,27.96
2022-08-23T14:56:20.277Z,28
2022-08-23T14:57:04.280Z,28.04
2022-08-23T14:58:05.001Z,28.08
2022-08-23T14:59:04.806Z,28.04
2022-08-23T15:01:07.512Z,27.93
2022-08-23T15:02:10.960Z,27.92
2022-08-23T15:03:11.424Z,27.93
2022-08-23T15:04:09.825Z,27.94
2022-08-23T15:05:10.362Z,27.94
2022-08-23T15:06:11.508Z,27.96
2022-08-23T15:07:19.187Z,27.98
2022-08-23T15:08:12.034Z,27.97
2022-08-23T15:09:12.862Z,27.98
2022-08-23T15:10:49.737Z,27.92
2022-08-23T15:13:30.005Z,27.89
2022-08-23T15:14:24.870Z,27.9
2022-08-23T15:15:26.068Z,27.83
2022-08-23T15:16:25.936Z,27.81
2022-08-23T15:17:30.923Z,27.8
2022-08-23T15:18:28.885Z,27.81
2022-08-23T15:19:29.816Z,27.77
2022-08-23T15:20:34.224Z,27.76
2022-08-23T15:21:31.675Z,27.71
2022-08-23T15:22:31.882Z,27.61
2022-08-23T15:23:32.510Z,27.65
2022-08-23T15:24:32.716Z,27.71
2022-08-23T15:25:36.613Z,27.69
2022-08-23T15:26:35.287Z,27.66
2022-08-23T15:27:34.266Z,27.7
2022-08-23T15:28:34.785Z,27.68
2022-08-23T15:29:35.013Z,27.64
2022-08-23T15:30:36.270Z,27.57
2022-08-23T15:31:35.876Z,27.62
2022-08-23T15:32:36.046Z,27.64
2022-08-23T15:33:36.353Z,27.59
2022-08-23T15:34:37.185Z,27.53
2022-08-23T15:35:45.392Z,27.54
2022-08-23T15:36:41.506Z,27.55
2022-08-23T15:37:39.354Z,27.47
2022-08-23T15:38:43.456Z,27.42
2022-08-23T15:39:42.665Z,27.39
2022-08-23T15:40:42.643Z,27.33
2022-08-23T15:41:42.652Z,27.34
2022-08-23T15:42:42.815Z,27.37
2022-08-23T15:43:44.521Z,27.41
2022-08-23T15:44:43.289Z,27.45
2022-08-23T15:45:43.971Z,27.35
2022-08-23T15:46:47.504Z,27.33
2022-08-23T15:49:50.077Z,27.21
2022-08-23T15:50:50.902Z,27.21
2022-08-23T15:51:50.570Z,27.23
2022-08-23T15:52:51.561Z,27.19
2022-08-23T15:53:51.740Z,27.2
2022-08-23T15:54:51.745Z,27.18
2022-08-23T15:55:53.195Z,27.11
2022-08-23T15:56:52.580Z,27.14
2022-08-23T15:57:54.029Z,27.13
2022-08-23T15:58:53.936Z,27.09
2022-08-23T15:59:54.439Z,27.1
2022-08-23T16:00:54.634Z,27.06
2022-08-23T16:01:54.540Z,27.02
2022-08-23T16:03:20.027Z,26.97
2022-08-23T16:03:56.718Z,26.93
2022-08-23T16:04:57.138Z,26.86
2022-08-23T16:05:57.449Z,26.9
2022-08-23T16:06:58.381Z,26.88
2022-08-23T16:07:59.633Z,26.86
2022-08-23T16:08:58.497Z,26.85
2022-08-23T16:09:59.532Z,26.82
2022-08-23T16:10:59.740Z,26.81
2022-08-23T16:12:00.339Z,26.75
2022-08-23T16:13:00.079Z,26.7
2022-08-23T16:14:00.136Z,26.69
2022-08-23T16:15:00.690Z,26.69
2022-08-23T16:16:01.001Z,26.68
2022-08-23T16:17:01.671Z,26.6
2022-08-23T16:18:01.737Z,26.61
2022-08-23T16:19:01.945Z,26.58
2022-08-23T16:20:04.518Z,26.52
2022-08-23T16:21:02.886Z,26.4
2022-08-23T16:22:04.109Z,26.35
2022-08-23T16:23:03.873Z,26.31
2022-08-23T16:24:05.250Z,26.32
2022-08-23T16:25:05.258Z,26.32
2022-08-23T16:26:04.759Z,26.31
2022-08-23T16:27:06.504Z,26.27
2022-08-23T16:28:05.583Z,26.18
2022-08-23T16:29:08.666Z,26.16
2022-08-23T16:30:07.545Z,26.14
2022-08-23T16:31:07.496Z,26.16
2022-08-23T16:32:08.886Z,26.16
2022-08-23T16:33:09.302Z,26.16
2022-08-23T16:35:11.056Z,26.01
2022-08-23T16:36:11.508Z,26.02
2022-08-23T16:37:11.478Z,25.98
2022-08-23T16:38:11.793Z,25.97
2022-08-23T16:39:14.256Z,25.95
2022-08-23T16:40:13.166Z,25.91
2022-08-23T16:41:12.836Z,25.85
2022-08-23T16:42:14.581Z,25.83
2022-08-23T16:43:13.463Z,25.79
2022-08-23T16:44:13.775Z,25.78
2022-08-23T16:45:14.607Z,25.76
2022-08-23T16:46:15.528Z,25.72
2022-08-23T16:47:16.021Z,25.64
2022-08-23T16:48:15.443Z,25.58
2022-08-23T16:49:17.394Z,25.57
2022-08-23T16:50:15.967Z,25.53
2022-08-23T16:51:16.177Z,25.52